sensor_id;sensor_type;location;lat;lon;timestamp;temperature;humidity
51719;DHT22;37795;53.236;5.704;2024-01-11T00:01:09;12.40;64.20
51719;DHT22;37795;53.236;5.704;2024-01-11T00:03:35;12.40;64.20
51719;DHT22;37795;53.236;5.704;2024-01-11T00:06:01;12.40;64.20
51719;DHT22;37795;53.236;5.704;2024-01-11T00:08:27;12.50;64.10
51719;DHT22;37795;53.236;5.704;2024-01-11T00:10:52;12.50;63.90
51719;DHT22;37795;53.236;5.704;2024-01-11T00:13:18;12.60;63.60
51719;DHT22;37795;53.236;5.704;2024-01-11T00:15:44;12.60;63.50
51719;DHT22;37795;53.236;5.704;2024-01-11T00:18:09;12.60;63.40
51719;DHT22;37795;53.236;5.704;2024-01-11T00:20:35;12.60;63.20
51719;DHT22;37795;53.236;5.704;2024-01-11T00:23:01;12.60;63.20
51719;DHT22;37795;53.236;5.704;2024-01-11T00:25:27;12.60;63.20
51719;DHT22;37795;53.236;5.704;2024-01-11T00:27:52;12.60;63.10
51719;DHT22;37795;53.236;5.704;2024-01-11T00:30:18;12.50;63.20
51719;DHT22;37795;53.236;5.704;2024-01-11T00:32:44;12.50;63.20
51719;DHT22;37795;53.236;5.704;2024-01-11T00:35:09;12.50;63.20
51719;DHT22;37795;53.236;5.704;2024-01-11T00:37:35;12.50;63.20
51719;DHT22;37795;53.236;5.704;2024-01-11T00:40:01;12.50;63.10
51719;DHT22;37795;53.236;5.704;2024-01-11T00:42:27;12.60;63.00
51719;DHT22;37795;53.236;5.704;2024-01-11T00:44:52;12.60;62.90
51719;DHT22;37795;53.236;5.704;2024-01-11T00:47:18;12.60;62.90
51719;DHT22;37795;53.236;5.704;2024-01-11T00:49:44;12.80;62.70
51719;DHT22;37795;53.236;5.704;2024-01-11T00:52:09;12.80;62.50
51719;DHT22;37795;53.236;5.704;2024-01-11T00:54:35;12.90;62.50
51719;DHT22;37795;53.236;5.704;2024-01-11T00:57:01;13.00;62.40
51719;DHT22;37795;53.236;5.704;2024-01-11T00:59:27;13.10;62.10
51719;DHT22;37795;53.236;5.704;2024-01-11T01:01:53;13.30;62.00
51719;DHT22;37795;53.236;5.704;2024-01-11T01:04:18;13.40;61.90
51719;DHT22;37795;53.236;5.704;2024-01-11T01:06:44;13.80;61.20
51719;DHT22;37795;53.236;5.704;2024-01-11T01:09:10;14.00;60.50
51719;DHT22;37795;53.236;5.704;2024-01-11T01:11:36;14.00;60.30
51719;DHT22;37795;53.236;5.704;2024-01-11T01:14:02;13.90;60.60
51719;DHT22;37795;53.236;5.704;2024-01-11T01:16:28;13.80;60.70
51719;DHT22;37795;53.236;5.704;2024-01-11T01:18:54;13.80;60.80
51719;DHT22;37795;53.236;5.704;2024-01-11T01:21:19;13.80;60.90
51719;DHT22;37795;53.236;5.704;2024-01-11T01:23:45;13.70;60.90
51719;DHT22;37795;53.236;5.704;2024-01-11T01:26:11;13.70;61.00
51719;DHT22;37795;53.236;5.704;2024-01-11T01:28:36;13.60;61.00
51719;DHT22;37795;53.236;5.704;2024-01-11T01:31:02;13.60;61.30
51719;DHT22;37795;53.236;5.704;2024-01-11T01:33:28;13.70;61.10
51719;DHT22;37795;53.236;5.704;2024-01-11T01:35:53;13.70;60.90
51719;DHT22;37795;53.236;5.704;2024-01-11T01:38:19;13.70;60.90
51719;DHT22;37795;53.236;5.704;2024-01-11T01:40:45;13.60;60.90
51719;DHT22;37795;53.236;5.704;2024-01-11T01:43:10;13.60;60.90
51719;DHT22;37795;53.236;5.704;2024-01-11T01:45:38;13.60;61.00
51719;DHT22;37795;53.236;5.704;2024-01-11T01:48:04;13.50;61.10
51719;DHT22;37795;53.236;5.704;2024-01-11T01:50:30;13.50;61.10
51719;DHT22;37795;53.236;5.704;2024-01-11T01:52:57;13.40;61.20
51719;DHT22;37795;53.236;5.704;2024-01-11T01:55:23;13.40;61.30
51719;DHT22;37795;53.236;5.704;2024-01-11T01:57:50;13.40;61.30
51719;DHT22;37795;53.236;5.704;2024-01-11T02:00:16;13.40;61.20
51719;DHT22;37795;53.236;5.704;2024-01-11T02:02:45;13.50;61.00
51719;DHT22;37795;53.236;5.704;2024-01-11T02:05:14;13.50;61.00
51719;DHT22;37795;53.236;5.704;2024-01-11T02:07:41;13.50;60.80
51719;DHT22;37795;53.236;5.704;2024-01-11T02:10:08;13.40;60.90
51719;DHT22;37795;53.236;5.704;2024-01-11T02:12:37;13.40;61.00
51719;DHT22;37795;53.236;5.704;2024-01-11T02:15:05;13.30;61.10
51719;DHT22;37795;53.236;5.704;2024-01-11T02:17:32;13.30;61.10
51719;DHT22;37795;53.236;5.704;2024-01-11T02:19:57;13.20;61.20
51719;DHT22;37795;53.236;5.704;2024-01-11T02:22:31;13.20;61.30
51719;DHT22;37795;53.236;5.704;2024-01-11T02:24:57;13.30;61.30
51719;DHT22;37795;53.236;5.704;2024-01-11T02:27:23;13.30;61.10
51719;DHT22;37795;53.236;5.704;2024-01-11T02:29:49;13.30;61.10
51719;DHT22;37795;53.236;5.704;2024-01-11T02:32:15;13.30;61.10
51719;DHT22;37795;53.236;5.704;2024-01-11T02:34:41;13.30;61.10
51719;DHT22;37795;53.236;5.704;2024-01-11T02:37:08;13.20;61.00
51719;DHT22;37795;53.236;5.704;2024-01-11T02:39:33;13.20;61.10
51719;DHT22;37795;53.236;5.704;2024-01-11T02:42:00;13.10;61.10
51719;DHT22;37795;53.236;5.704;2024-01-11T02:44:26;13.10;61.20
51719;DHT22;37795;53.236;5.704;2024-01-11T02:46:51;12.90;61.40
51719;DHT22;37795;53.236;5.704;2024-01-11T02:49:17;12.70;61.90
51719;DHT22;37795;53.236;5.704;2024-01-11T02:51:43;12.60;62.30
51719;DHT22;37795;53.236;5.704;2024-01-11T02:54:08;12.60;62.30
51719;DHT22;37795;53.236;5.704;2024-01-11T02:56:34;12.60;62.40
51719;DHT22;37795;53.236;5.704;2024-01-11T02:59:00;12.70;62.30
51719;DHT22;37795;53.236;5.704;2024-01-11T03:01:25;12.60;62.10
51719;DHT22;37795;53.236;5.704;2024-01-11T03:03:51;12.50;62.40
51719;DHT22;37795;53.236;5.704;2024-01-11T03:06:16;12.50;62.60
51719;DHT22;37795;53.236;5.704;2024-01-11T03:08:49;12.40;62.70
51719;DHT22;37795;53.236;5.704;2024-01-11T03:11:15;12.30;62.90
51719;DHT22;37795;53.236;5.704;2024-01-11T03:13:41;12.30;63.00
51719;DHT22;37795;53.236;5.704;2024-01-11T03:16:07;12.30;63.00
51719;DHT22;37795;53.236;5.704;2024-01-11T03:18:32;12.20;63.20
51719;DHT22;37795;53.236;5.704;2024-01-11T03:20:58;12.20;63.10
51719;DHT22;37795;53.236;5.704;2024-01-11T03:23:23;12.20;63.30
51719;DHT22;37795;53.236;5.704;2024-01-11T03:25:49;12.10;63.30
51719;DHT22;37795;53.236;5.704;2024-01-11T03:28:15;12.10;63.50
51719;DHT22;37795;53.236;5.704;2024-01-11T03:30:41;12.10;63.60
51719;DHT22;37795;53.236;5.704;2024-01-11T03:33:06;12.20;63.70
51719;DHT22;37795;53.236;5.704;2024-01-11T03:35:32;12.40;63.50
51719;DHT22;37795;53.236;5.704;2024-01-11T03:37:57;12.50;63.10
51719;DHT22;37795;53.236;5.704;2024-01-11T03:40:23;12.60;62.90
51719;DHT22;37795;53.236;5.704;2024-01-11T03:42:48;12.80;62.80
51719;DHT22;37795;53.236;5.704;2024-01-11T03:45:17;13.10;62.40
51719;DHT22;37795;53.236;5.704;2024-01-11T03:47:43;13.50;61.30
51719;DHT22;37795;53.236;5.704;2024-01-11T03:50:09;13.80;60.30
51719;DHT22;37795;53.236;5.704;2024-01-11T03:52:34;13.60;60.40
51719;DHT22;37795;53.236;5.704;2024-01-11T03:55:00;13.50;60.70
51719;DHT22;37795;53.236;5.704;2024-01-11T03:57:25;13.40;61.00
51719;DHT22;37795;53.236;5.704;2024-01-11T03:59:51;13.30;61.30
51719;DHT22;37795;53.236;5.704;2024-01-11T04:02:16;13.20;61.50
51719;DHT22;37795;53.236;5.704;2024-01-11T04:04:42;13.10;61.70
51719;DHT22;37795;53.236;5.704;2024-01-11T04:07:08;13.00;61.90
51719;DHT22;37795;53.236;5.704;2024-01-11T04:09:33;12.90;62.10
51719;DHT22;37795;53.236;5.704;2024-01-11T04:11:59;12.80;62.20
51719;DHT22;37795;53.236;5.704;2024-01-11T04:14:24;12.80;62.40
51719;DHT22;37795;53.236;5.704;2024-01-11T04:16:50;12.70;62.60
51719;DHT22;37795;53.236;5.704;2024-01-11T04:19:16;12.60;62.70
51719;DHT22;37795;53.236;5.704;2024-01-11T04:21:41;12.60;62.80
51719;DHT22;37795;53.236;5.704;2024-01-11T04:24:07;12.50;62.90
51719;DHT22;37795;53.236;5.704;2024-01-11T04:26:33;12.40;63.00
51719;DHT22;37795;53.236;5.704;2024-01-11T04:28:58;12.40;63.10
51719;DHT22;37795;53.236;5.704;2024-01-11T04:31:25;12.40;63.30
51719;DHT22;37795;53.236;5.704;2024-01-11T04:33:51;12.50;63.00
51719;DHT22;37795;53.236;5.704;2024-01-11T04:36:16;12.40;62.90
51719;DHT22;37795;53.236;5.704;2024-01-11T04:38:42;12.40;63.00
51719;DHT22;37795;53.236;5.704;2024-01-11T04:41:08;12.40;63.00
51719;DHT22;37795;53.236;5.704;2024-01-11T04:43:37;12.30;63.10
51719;DHT22;37795;53.236;5.704;2024-01-11T04:46:14;12.30;63.20
51719;DHT22;37795;53.236;5.704;2024-01-11T04:48:40;12.40;63.00
51719;DHT22;37795;53.236;5.704;2024-01-11T04:51:05;12.50;62.80
51719;DHT22;37795;53.236;5.704;2024-01-11T04:53:31;12.50;62.70
51719;DHT22;37795;53.236;5.704;2024-01-11T04:55:57;12.50;62.60
51719;DHT22;37795;53.236;5.704;2024-01-11T04:58:22;12.40;62.50
51719;DHT22;37795;53.236;5.704;2024-01-11T05:00:48;12.40;62.70
51719;DHT22;37795;53.236;5.704;2024-01-11T05:03:14;12.30;62.80
51719;DHT22;37795;53.236;5.704;2024-01-11T05:05:40;12.30;62.90
51719;DHT22;37795;53.236;5.704;2024-01-11T05:08:05;12.20;63.10
51719;DHT22;37795;53.236;5.704;2024-01-11T05:10:31;12.20;63.00
51719;DHT22;37795;53.236;5.704;2024-01-11T05:12:56;12.10;63.10
51719;DHT22;37795;53.236;5.704;2024-01-11T05:15:22;12.10;63.20
51719;DHT22;37795;53.236;5.704;2024-01-11T05:17:47;12.10;63.30
51719;DHT22;37795;53.236;5.704;2024-01-11T05:20:13;12.00;63.30
51719;DHT22;37795;53.236;5.704;2024-01-11T05:22:40;12.10;63.30
51719;DHT22;37795;53.236;5.704;2024-01-11T05:25:05;12.10;63.40
51719;DHT22;37795;53.236;5.704;2024-01-11T05:27:31;12.10;63.30
51719;DHT22;37795;53.236;5.704;2024-01-11T05:29:56;12.20;63.10
51719;DHT22;37795;53.236;5.704;2024-01-11T05:32:22;12.20;62.90
51719;DHT22;37795;53.236;5.704;2024-01-11T05:34:47;12.20;63.00
51719;DHT22;37795;53.236;5.704;2024-01-11T05:37:13;12.10;62.90
51719;DHT22;37795;53.236;5.704;2024-01-11T05:39:39;12.10;63.00
51719;DHT22;37795;53.236;5.704;2024-01-11T05:42:05;12.00;63.10
51719;DHT22;37795;53.236;5.704;2024-01-11T05:44:31;12.00;63.10
51719;DHT22;37795;53.236;5.704;2024-01-11T05:46:57;12.10;63.00
51719;DHT22;37795;53.236;5.704;2024-01-11T05:49:23;12.20;62.90
51719;DHT22;37795;53.236;5.704;2024-01-11T05:51:49;12.20;62.80
51719;DHT22;37795;53.236;5.704;2024-01-11T05:54:14;12.30;62.80
51719;DHT22;37795;53.236;5.704;2024-01-11T05:56:40;12.30;62.70
51719;DHT22;37795;53.236;5.704;2024-01-11T05:59:06;12.50;62.50
51719;DHT22;37795;53.236;5.704;2024-01-11T06:01:31;12.60;62.20
51719;DHT22;37795;53.236;5.704;2024-01-11T06:03:57;12.80;62.00
51719;DHT22;37795;53.236;5.704;2024-01-11T06:06:23;12.90;61.70
51719;DHT22;37795;53.236;5.704;2024-01-11T06:08:48;13.10;61.40
51719;DHT22;37795;53.236;5.704;2024-01-11T06:11:14;13.30;61.20
51719;DHT22;37795;53.236;5.704;2024-01-11T06:13:40;13.50;60.60
51719;DHT22;37795;53.236;5.704;2024-01-11T06:16:07;13.70;60.20
51719;DHT22;37795;53.236;5.704;2024-01-11T06:18:33;13.70;60.00
51719;DHT22;37795;53.236;5.704;2024-01-11T06:20:58;13.60;60.00
51719;DHT22;37795;53.236;5.704;2024-01-11T06:23:25;13.60;60.20
51719;DHT22;37795;53.236;5.704;2024-01-11T06:25:51;13.60;60.30
51719;DHT22;37795;53.236;5.704;2024-01-11T06:28:16;13.60;60.30
51719;DHT22;37795;53.236;5.704;2024-01-11T06:30:42;13.50;60.30
51719;DHT22;37795;53.236;5.704;2024-01-11T06:33:09;13.60;60.30
51719;DHT22;37795;53.236;5.704;2024-01-11T06:35:34;13.50;60.30
51719;DHT22;37795;53.236;5.704;2024-01-11T06:38:00;13.50;60.30
51719;DHT22;37795;53.236;5.704;2024-01-11T06:40:26;13.50;60.40
51719;DHT22;37795;53.236;5.704;2024-01-11T06:42:52;13.50;60.50
51719;DHT22;37795;53.236;5.704;2024-01-11T06:52:09;13.10;61.00
51719;DHT22;37795;53.236;5.704;2024-01-11T06:54:35;13.00;61.20
51719;DHT22;37795;53.236;5.704;2024-01-11T06:57:00;12.90;61.40
51719;DHT22;37795;53.236;5.704;2024-01-11T06:59:26;12.90;61.50
51719;DHT22;37795;53.236;5.704;2024-01-11T07:01:52;12.80;61.70
51719;DHT22;37795;53.236;5.704;2024-01-11T07:04:17;12.80;61.70
51719;DHT22;37795;53.236;5.704;2024-01-11T07:06:43;12.80;61.80
51719;DHT22;37795;53.236;5.704;2024-01-11T07:09:09;12.70;61.80
51719;DHT22;37795;53.236;5.704;2024-01-11T07:11:36;12.70;61.90
51719;DHT22;37795;53.236;5.704;2024-01-11T07:14:02;12.70;62.00
51719;DHT22;37795;53.236;5.704;2024-01-11T07:16:30;12.60;62.10
51719;DHT22;37795;53.236;5.704;2024-01-11T07:18:56;12.60;62.10
51719;DHT22;37795;53.236;5.704;2024-01-11T07:21:23;12.60;62.30
51719;DHT22;37795;53.236;5.704;2024-01-11T07:23:55;12.60;62.30
51719;DHT22;37795;53.236;5.704;2024-01-11T07:26:23;12.60;62.00
51719;DHT22;37795;53.236;5.704;2024-01-11T07:28:49;12.60;62.20
51719;DHT22;37795;53.236;5.704;2024-01-11T07:31:15;12.70;62.20
51719;DHT22;37795;53.236;5.704;2024-01-11T07:33:41;12.80;62.20
51719;DHT22;37795;53.236;5.704;2024-01-11T07:36:07;12.90;62.00
51719;DHT22;37795;53.236;5.704;2024-01-11T07:38:33;12.90;62.00
51719;DHT22;37795;53.236;5.704;2024-01-11T07:40:58;13.10;61.80
51719;DHT22;37795;53.236;5.704;2024-01-11T07:43:24;13.20;61.60
51719;DHT22;37795;53.236;5.704;2024-01-11T07:45:52;13.30;61.50
51719;DHT22;37795;53.236;5.704;2024-01-11T07:48:17;13.50;61.20
51719;DHT22;37795;53.236;5.704;2024-01-11T07:50:43;13.60;61.00
51719;DHT22;37795;53.236;5.704;2024-01-11T07:53:09;13.70;60.80
51719;DHT22;37795;53.236;5.704;2024-01-11T07:55:35;13.70;60.70
51719;DHT22;37795;53.236;5.704;2024-01-11T07:58:01;13.70;60.80
51719;DHT22;37795;53.236;5.704;2024-01-11T08:00:26;13.70;60.80
51719;DHT22;37795;53.236;5.704;2024-01-11T08:02:52;13.70;60.90
51719;DHT22;37795;53.236;5.704;2024-01-11T08:05:19;13.60;60.90
51719;DHT22;37795;53.236;5.704;2024-01-11T08:07:45;13.60;60.90
51719;DHT22;37795;53.236;5.704;2024-01-11T08:10:11;13.50;61.10
51719;DHT22;37795;53.236;5.704;2024-01-11T08:12:37;13.60;61.20
51719;DHT22;37795;53.236;5.704;2024-01-11T08:15:03;13.80;60.90
51719;DHT22;37795;53.236;5.704;2024-01-11T08:17:29;13.90;60.50
51719;DHT22;37795;53.236;5.704;2024-01-11T08:19:54;14.00;60.40
51719;DHT22;37795;53.236;5.704;2024-01-11T08:22:22;14.10;60.20
51719;DHT22;37795;53.236;5.704;2024-01-11T08:24:48;14.20;60.00
51719;DHT22;37795;53.236;5.704;2024-01-11T08:27:14;14.30;59.80
51719;DHT22;37795;53.236;5.704;2024-01-11T08:29:43;14.30;59.80
51719;DHT22;37795;53.236;5.704;2024-01-11T08:32:09;14.40;59.80
51719;DHT22;37795;53.236;5.704;2024-01-11T08:34:34;14.40;59.80
51719;DHT22;37795;53.236;5.704;2024-01-11T08:37:00;14.40;60.00
51719;DHT22;37795;53.236;5.704;2024-01-11T08:39:26;14.70;59.60
51719;DHT22;37795;53.236;5.704;2024-01-11T08:41:51;14.90;59.10
51719;DHT22;37795;53.236;5.704;2024-01-11T08:44:18;15.00;58.80
51719;DHT22;37795;53.236;5.704;2024-01-11T08:46:44;14.80;59.00
51719;DHT22;37795;53.236;5.704;2024-01-11T08:49:09;14.80;59.20
51719;DHT22;37795;53.236;5.704;2024-01-11T08:51:35;14.70;59.30
51719;DHT22;37795;53.236;5.704;2024-01-11T08:54:01;14.70;59.50
51719;DHT22;37795;53.236;5.704;2024-01-11T08:56:27;14.60;59.60
51719;DHT22;37795;53.236;5.704;2024-01-11T08:58:53;14.60;59.60
51719;DHT22;37795;53.236;5.704;2024-01-11T09:01:19;14.50;59.70
51719;DHT22;37795;53.236;5.704;2024-01-11T09:03:45;14.50;59.80
51719;DHT22;37795;53.236;5.704;2024-01-11T09:06:13;14.40;59.80
51719;DHT22;37795;53.236;5.704;2024-01-11T09:08:39;14.40;59.90
51719;DHT22;37795;53.236;5.704;2024-01-11T09:11:06;14.30;60.00
51719;DHT22;37795;53.236;5.704;2024-01-11T09:13:32;14.20;60.10
51719;DHT22;37795;53.236;5.704;2024-01-11T09:15:58;14.20;60.20
51719;DHT22;37795;53.236;5.704;2024-01-11T09:18:24;14.20;60.20
51719;DHT22;37795;53.236;5.704;2024-01-11T09:20:50;14.10;60.30
51719;DHT22;37795;53.236;5.704;2024-01-11T09:23:16;14.10;60.30
51719;DHT22;37795;53.236;5.704;2024-01-11T09:25:42;14.00;60.50
51719;DHT22;37795;53.236;5.704;2024-01-11T09:28:07;14.00;60.60
51719;DHT22;37795;53.236;5.704;2024-01-11T09:30:33;14.00;60.50
51719;DHT22;37795;53.236;5.704;2024-01-11T09:32:59;14.10;60.50
51719;DHT22;37795;53.236;5.704;2024-01-11T09:35:25;14.10;60.40
51719;DHT22;37795;53.236;5.704;2024-01-11T09:37:51;14.20;60.40
51719;DHT22;37795;53.236;5.704;2024-01-11T09:40:18;14.20;60.40
51719;DHT22;37795;53.236;5.704;2024-01-11T09:42:44;14.30;60.40
51719;DHT22;37795;53.236;5.704;2024-01-11T09:45:12;14.30;60.30
51719;DHT22;37795;53.236;5.704;2024-01-11T09:47:39;14.40;60.30
51719;DHT22;37795;53.236;5.704;2024-01-11T09:50:06;14.40;60.30
51719;DHT22;37795;53.236;5.704;2024-01-11T09:52:33;14.60;60.30
51719;DHT22;37795;53.236;5.704;2024-01-11T09:55:02;14.90;59.70
51719;DHT22;37795;53.236;5.704;2024-01-11T09:57:31;15.00;59.30
51719;DHT22;37795;53.236;5.704;2024-01-11T10:00:03;14.90;59.10
51719;DHT22;37795;53.236;5.704;2024-01-11T10:02:29;14.80;59.30
51719;DHT22;37795;53.236;5.704;2024-01-11T10:04:55;14.80;59.50
51719;DHT22;37795;53.236;5.704;2024-01-11T10:07:22;14.70;59.60
51719;DHT22;37795;53.236;5.704;2024-01-11T10:09:48;14.60;59.70
51719;DHT22;37795;53.236;5.704;2024-01-11T10:12:15;14.60;59.80
51719;DHT22;37795;53.236;5.704;2024-01-11T10:14:42;14.50;59.80
51719;DHT22;37795;53.236;5.704;2024-01-11T10:17:08;14.50;59.90
51719;DHT22;37795;53.236;5.704;2024-01-11T10:19:34;14.50;59.80
51719;DHT22;37795;53.236;5.704;2024-01-11T10:21:59;14.50;59.80
51719;DHT22;37795;53.236;5.704;2024-01-11T10:24:25;14.50;59.60
51719;DHT22;37795;53.236;5.704;2024-01-11T10:26:58;14.50;59.50
51719;DHT22;37795;53.236;5.704;2024-01-11T10:29:30;14.50;59.30
51719;DHT22;37795;53.236;5.704;2024-01-11T10:31:56;14.50;59.30
51719;DHT22;37795;53.236;5.704;2024-01-11T10:34:25;14.50;59.20
51719;DHT22;37795;53.236;5.704;2024-01-11T10:36:51;14.50;59.20
51719;DHT22;37795;53.236;5.704;2024-01-11T10:39:17;14.40;59.20
51719;DHT22;37795;53.236;5.704;2024-01-11T10:41:51;14.40;59.20
51719;DHT22;37795;53.236;5.704;2024-01-11T10:44:21;14.40;59.20
51719;DHT22;37795;53.236;5.704;2024-01-11T10:52:12;13.90;60.00
51719;DHT22;37795;53.236;5.704;2024-01-11T10:54:39;13.80;60.30
51719;DHT22;37795;53.236;5.704;2024-01-11T10:57:05;13.70;60.50
51719;DHT22;37795;53.236;5.704;2024-01-11T10:59:33;13.60;60.80
51719;DHT22;37795;53.236;5.704;2024-01-11T11:02:03;13.60;60.80
51719;DHT22;37795;53.236;5.704;2024-01-11T11:04:29;13.70;60.70
51719;DHT22;37795;53.236;5.704;2024-01-11T11:06:56;13.70;60.60
51719;DHT22;37795;53.236;5.704;2024-01-11T11:09:25;13.70;60.40
51719;DHT22;37795;53.236;5.704;2024-01-11T11:11:53;13.70;60.40
51719;DHT22;37795;53.236;5.704;2024-01-11T11:14:19;13.60;60.50
51719;DHT22;37795;53.236;5.704;2024-01-11T11:16:45;13.60;60.50
51719;DHT22;37795;53.236;5.704;2024-01-11T11:19:10;13.50;60.60
51719;DHT22;37795;53.236;5.704;2024-01-11T11:21:47;13.50;60.70
51719;DHT22;37795;53.236;5.704;2024-01-11T11:24:13;13.50;60.80
51719;DHT22;37795;53.236;5.704;2024-01-11T11:26:38;13.40;60.80
51719;DHT22;37795;53.236;5.704;2024-01-11T11:29:04;13.40;60.90
51719;DHT22;37795;53.236;5.704;2024-01-11T11:31:43;13.30;61.10
51719;DHT22;37795;53.236;5.704;2024-01-11T11:34:11;13.30;61.30
51719;DHT22;37795;53.236;5.704;2024-01-11T11:36:39;13.30;61.30
51719;DHT22;37795;53.236;5.704;2024-01-11T11:39:05;13.40;61.10
51719;DHT22;37795;53.236;5.704;2024-01-11T11:41:31;13.40;60.90
51719;DHT22;37795;53.236;5.704;2024-01-11T11:44:03;13.40;60.90
51719;DHT22;37795;53.236;5.704;2024-01-11T11:46:29;13.40;60.90
51719;DHT22;37795;53.236;5.704;2024-01-11T11:48:56;13.40;60.80
51719;DHT22;37795;53.236;5.704;2024-01-11T11:51:22;13.40;60.80
51719;DHT22;37795;53.236;5.704;2024-01-11T11:53:49;13.50;60.70
51719;DHT22;37795;53.236;5.704;2024-01-11T11:56:16;13.60;60.80
51719;DHT22;37795;53.236;5.704;2024-01-11T11:58:42;13.70;60.60
51719;DHT22;37795;53.236;5.704;2024-01-11T12:01:08;13.80;60.50
51719;DHT22;37795;53.236;5.704;2024-01-11T12:03:37;13.90;60.30
51719;DHT22;37795;53.236;5.704;2024-01-11T12:06:04;14.10;60.10
51719;DHT22;37795;53.236;5.704;2024-01-11T12:08:33;14.40;59.50
51719;DHT22;37795;53.236;5.704;2024-01-11T12:10:58;14.60;59.00
51719;DHT22;37795;53.236;5.704;2024-01-11T12:13:24;14.80;58.70
51719;DHT22;37795;53.236;5.704;2024-01-11T12:15:50;15.10;58.20
51719;DHT22;37795;53.236;5.704;2024-01-11T12:18:16;15.30;57.80
51719;DHT22;37795;53.236;5.704;2024-01-11T12:20:41;15.30;57.50
51719;DHT22;37795;53.236;5.704;2024-01-11T12:23:07;15.10;57.70
51719;DHT22;37795;53.236;5.704;2024-01-11T12:25:33;15.00;58.00
51719;DHT22;37795;53.236;5.704;2024-01-11T12:27:58;14.90;58.30
51719;DHT22;37795;53.236;5.704;2024-01-11T12:30:25;14.70;58.50
51719;DHT22;37795;53.236;5.704;2024-01-11T12:32:51;14.70;58.80
51719;DHT22;37795;53.236;5.704;2024-01-11T12:35:17;14.60;59.00
51719;DHT22;37795;53.236;5.704;2024-01-11T12:38:02;14.50;59.30
51719;DHT22;37795;53.236;5.704;2024-01-11T12:40:34;14.40;59.50
51719;DHT22;37795;53.236;5.704;2024-01-11T12:43:00;14.50;59.50
51719;DHT22;37795;53.236;5.704;2024-01-11T12:45:26;14.50;59.40
51719;DHT22;37795;53.236;5.704;2024-01-11T12:47:52;14.50;59.40
51719;DHT22;37795;53.236;5.704;2024-01-11T12:50:20;14.40;59.40
51719;DHT22;37795;53.236;5.704;2024-01-11T12:52:46;14.40;59.50
51719;DHT22;37795;53.236;5.704;2024-01-11T12:55:18;14.30;59.60
51719;DHT22;37795;53.236;5.704;2024-01-11T12:57:44;14.30;59.60
51719;DHT22;37795;53.236;5.704;2024-01-11T13:00:13;14.20;59.80
51719;DHT22;37795;53.236;5.704;2024-01-11T13:02:41;14.20;59.80
51719;DHT22;37795;53.236;5.704;2024-01-11T13:05:09;14.10;60.00
51719;DHT22;37795;53.236;5.704;2024-01-11T13:07:36;14.10;60.00
51719;DHT22;37795;53.236;5.704;2024-01-11T13:10:02;14.10;60.10
51719;DHT22;37795;53.236;5.704;2024-01-11T13:12:29;14.00;60.10
51719;DHT22;37795;53.236;5.704;2024-01-11T13:14:55;14.00;60.20
51719;DHT22;37795;53.236;5.704;2024-01-11T13:17:21;13.90;60.40
51719;DHT22;37795;53.236;5.704;2024-01-11T13:19:47;13.90;60.50
51719;DHT22;37795;53.236;5.704;2024-01-11T13:22:12;13.90;60.40
51719;DHT22;37795;53.236;5.704;2024-01-11T13:24:38;13.90;60.30
51719;DHT22;37795;53.236;5.704;2024-01-11T13:27:04;13.90;60.30
51719;DHT22;37795;53.236;5.704;2024-01-11T13:29:29;13.90;60.20
51719;DHT22;37795;53.236;5.704;2024-01-11T13:31:55;13.90;60.20
51719;DHT22;37795;53.236;5.704;2024-01-11T13:34:21;13.90;60.20
51719;DHT22;37795;53.236;5.704;2024-01-11T13:36:46;13.90;60.20
51719;DHT22;37795;53.236;5.704;2024-01-11T13:39:12;13.80;60.20
51719;DHT22;37795;53.236;5.704;2024-01-11T13:41:37;13.80;60.30
51719;DHT22;37795;53.236;5.704;2024-01-11T13:44:03;13.70;60.40
51719;DHT22;37795;53.236;5.704;2024-01-11T13:46:31;13.60;60.60
51719;DHT22;37795;53.236;5.704;2024-01-11T13:48:57;13.60;60.70
51719;DHT22;37795;53.236;5.704;2024-01-11T13:51:23;13.60;60.80
51719;DHT22;37795;53.236;5.704;2024-01-11T13:53:49;13.60;60.80
51719;DHT22;37795;53.236;5.704;2024-01-11T13:56:14;13.60;60.70
51719;DHT22;37795;53.236;5.704;2024-01-11T13:58:40;13.60;60.60
51719;DHT22;37795;53.236;5.704;2024-01-11T14:01:06;13.60;60.60
51719;DHT22;37795;53.236;5.704;2024-01-11T14:03:33;13.60;60.60
51719;DHT22;37795;53.236;5.704;2024-01-11T14:05:59;13.50;60.60
51719;DHT22;37795;53.236;5.704;2024-01-11T14:08:25;13.60;60.60
51719;DHT22;37795;53.236;5.704;2024-01-11T14:10:51;13.70;60.40
51719;DHT22;37795;53.236;5.704;2024-01-11T14:13:18;13.70;60.30
51719;DHT22;37795;53.236;5.704;2024-01-11T14:15:44;13.60;60.20
51719;DHT22;37795;53.236;5.704;2024-01-11T14:18:10;13.50;60.50
51719;DHT22;37795;53.236;5.704;2024-01-11T14:20:35;13.40;60.80
51719;DHT22;37795;53.236;5.704;2024-01-11T14:23:01;13.30;61.00
51719;DHT22;37795;53.236;5.704;2024-01-11T14:25:27;13.30;61.20
51719;DHT22;37795;53.236;5.704;2024-01-11T14:27:54;13.30;61.30
51719;DHT22;37795;53.236;5.704;2024-01-11T14:30:20;13.40;61.30
51719;DHT22;37795;53.236;5.704;2024-01-11T14:32:47;13.60;61.30
51719;DHT22;37795;53.236;5.704;2024-01-11T14:35:14;13.90;60.70
51719;DHT22;37795;53.236;5.704;2024-01-11T14:37:40;14.10;60.10
51719;DHT22;37795;53.236;5.704;2024-01-11T14:40:05;14.30;59.70
51719;DHT22;37795;53.236;5.704;2024-01-11T14:42:31;14.50;59.40
51719;DHT22;37795;53.236;5.704;2024-01-11T14:44:58;14.50;59.30
51719;DHT22;37795;53.236;5.704;2024-01-11T14:47:24;14.80;59.10
51719;DHT22;37795;53.236;5.704;2024-01-11T14:49:50;15.00;58.60
51719;DHT22;37795;53.236;5.704;2024-01-11T14:52:16;15.00;58.20
51719;DHT22;37795;53.236;5.704;2024-01-11T14:54:42;14.90;58.30
51719;DHT22;37795;53.236;5.704;2024-01-11T14:57:08;14.80;58.60
51719;DHT22;37795;53.236;5.704;2024-01-11T14:59:33;14.70;58.90
51719;DHT22;37795;53.236;5.704;2024-01-11T15:01:59;14.50;59.20
51719;DHT22;37795;53.236;5.704;2024-01-11T15:04:25;14.40;59.40
51719;DHT22;37795;53.236;5.704;2024-01-11T15:06:51;14.40;59.60
51719;DHT22;37795;53.236;5.704;2024-01-11T15:09:17;14.30;59.80
51719;DHT22;37795;53.236;5.704;2024-01-11T15:11:42;14.20;60.00
51719;DHT22;37795;53.236;5.704;2024-01-11T15:14:08;14.20;60.20
51719;DHT22;37795;53.236;5.704;2024-01-11T15:16:37;14.10;60.30
51719;DHT22;37795;53.236;5.704;2024-01-11T15:19:03;14.00;60.50
51719;DHT22;37795;53.236;5.704;2024-01-11T15:21:29;13.90;60.70
51719;DHT22;37795;53.236;5.704;2024-01-11T15:23:55;14.00;60.80
51719;DHT22;37795;53.236;5.704;2024-01-11T15:26:21;14.00;60.60
51719;DHT22;37795;53.236;5.704;2024-01-11T15:28:47;14.10;60.50
51719;DHT22;37795;53.236;5.704;2024-01-11T15:31:13;14.10;60.40
51719;DHT22;37795;53.236;5.704;2024-01-11T15:33:39;14.00;60.40
51719;DHT22;37795;53.236;5.704;2024-01-11T15:36:05;14.00;60.50